»·PEaware :: TPX887 KLAS-KSNA

TPX887 :: KLAS-KSNA

FLIGHT INFORMATION

Flight Status: Arrived
Operator: ATP Experience
More flights by this operator :: More flights under this callsign
Pilot: Dave P. (45)
Aircraft: BOEING 737-800
(B738)
More flights by this aircraft type
Origin: KLAS McCarran Intl
United States
Destination: KSNA John Wayne-Orange Co
United States
More flights between these airports :: More routes between these airports
Route: +BOACH8 WHIGG FEYLA DSNEE3
File this flight plan on PilotEdge
Remarks: PBN / A1B1C1D1S1S2 DOF / 180703 REG / N738PM OPR / TPX PER / D RMK / TCAS SIMBRIEF
Altitude:
(Current/Filed)
28,000ft
Speed:
(Current/Filed)
474kts
Departed: 02-Jul-18 06:59 PM
Arrived: 02-Jul-18 07:39 PM
Distance/Time
Traveled:
197nm/0:40
Distance/Time
To Go:
Arrived

Flight Plot

Page will automatically refresh every two minutes.

Flight plan parsing failed; only flown route is shown


Map Options




Map Legend


Flown Route
Filed Route
Departure Airport
Arrival Airport
Navaid (VOR, NDB)
Fix

Horizontal Profiles

Position Reports

Time Latitude Longitude Heading Altitude Ground
Speed
02-Jul-18 18:35 36.080822 -115.138355 315 2189ft 0kts
02-Jul-18 18:35 36.080822 -115.138355 315 2189ft 0kts
02-Jul-18 18:36 36.080822 -115.138355 315 2189ft 0kts
02-Jul-18 18:37 36.080822 -115.138355 315 2189ft 0kts
02-Jul-18 18:38 36.080822 -115.138355 315 2189ft 0kts
02-Jul-18 18:39 36.080822 -115.138355 315 2189ft 0kts
02-Jul-18 18:40 36.080822 -115.138355 315 2189ft 0kts
02-Jul-18 18:41 36.080822 -115.138355 315 2189ft 0kts
02-Jul-18 18:42 36.080510 -115.137969 314 2189ft 2kts
02-Jul-18 18:43 36.080324 -115.137739 314 2189ft 0kts
02-Jul-18 18:44 36.080324 -115.137739 314 2189ft 0kts
02-Jul-18 18:45 36.080324 -115.137739 314 2189ft 0kts
02-Jul-18 18:46 36.080324 -115.137739 314 2189ft 0kts
02-Jul-18 18:47 36.080325 -115.137740 314 2189ft 0kts
02-Jul-18 18:48 36.080326 -115.137742 314 2189ft 0kts
02-Jul-18 18:49 36.080327 -115.137743 314 2189ft 0kts
02-Jul-18 18:50 36.080328 -115.137744 314 2189ft 0kts
02-Jul-18 18:51 36.080329 -115.137745 314 2189ft 0kts
02-Jul-18 18:52 36.080313 -115.137944 216 2189ft 3kts
02-Jul-18 18:53 36.079292 -115.136309 133 2189ft 7kts
02-Jul-18 18:54 36.078462 -115.135327 154 2189ft 7kts
02-Jul-18 18:55 36.078240 -115.129841 89 2189ft 17kts
02-Jul-18 18:56 36.078238 -115.123530 96 2189ft 13kts
02-Jul-18 18:57 36.077330 -115.121370 147 2189ft 6kts
02-Jul-18 18:58 36.076605 -115.121304 190 2189ft 7kts
02-Jul-18 18:59 36.076368 -115.141175 267 2189ft 145kts
02-Jul-18 19:00 36.076939 -115.201455 266 3884ft 185kts
02-Jul-18 19:01 36.056450 -115.266067 202 4905ft 245kts
02-Jul-18 19:02 35.986373 -115.294374 200 6860ft 278kts
02-Jul-18 19:03 35.909582 -115.309222 186 7061ft 279kts
02-Jul-18 19:04 35.830867 -115.312896 175 9207ft 289kts
02-Jul-18 19:05 35.747536 -115.302671 174 11184ft 327kts
02-Jul-18 19:06 35.654946 -115.327959 219 12778ft 371kts
02-Jul-18 19:07 35.583146 -115.422346 227 15274ft 385kts
02-Jul-18 19:08 35.509940 -115.520909 227 17688ft 396kts
02-Jul-18 19:09 35.434532 -115.622599 228 19847ft 409kts
02-Jul-18 19:10 35.356834 -115.727351 227 21801ft 421kts
02-Jul-18 19:11 35.276823 -115.834472 227 23539ft 432kts
02-Jul-18 19:12 35.193696 -115.943624 226 25115ft 443kts
02-Jul-18 19:13 35.106716 -116.052672 226 26547ft 452kts
02-Jul-18 19:14 35.019480 -116.162675 226 27831ft 453kts
02-Jul-18 19:15 34.931789 -116.272388 226 27866ft 450kts
02-Jul-18 19:16 34.846428 -116.380067 226 27871ft 435kts
02-Jul-18 19:17 34.764450 -116.484419 226 26534ft 417kts
02-Jul-18 19:18 34.684390 -116.583787 221 24832ft 404kts
02-Jul-18 19:19 34.596077 -116.670090 218 22383ft 407kts
02-Jul-18 19:20 34.508782 -116.755125 218 20248ft 397kts
02-Jul-18 19:21 34.429543 -116.845875 224 18232ft 385kts
02-Jul-18 19:22 34.355073 -116.932567 223 16230ft 364kts
02-Jul-18 19:23 34.282186 -117.016524 222 14363ft 359kts
02-Jul-18 19:24 34.201036 -117.081445 210 13244ft 341kts
02-Jul-18 19:25 34.116091 -117.133113 202 12525ft 343kts
02-Jul-18 19:26 34.029176 -117.178734 203 11998ft 332kts
02-Jul-18 19:27 33.963277 -117.242013 229 11094ft 295kts
02-Jul-18 19:28 33.910951 -117.316294 229 10072ft 287kts
02-Jul-18 19:29 33.859637 -117.388785 229 9032ft 272kts
02-Jul-18 19:30 33.815481 -117.457242 242 8329ft 246kts
02-Jul-18 19:31 33.796780 -117.535012 268 7548ft 240kts
02-Jul-18 19:32 33.810558 -117.611180 291 7195ft 220kts
02-Jul-18 19:33 33.832557 -117.677214 291 6083ft 203kts
02-Jul-18 19:34 33.849391 -117.740321 260 4705ft 196kts
02-Jul-18 19:35 33.811914 -117.781921 211 2904ft 197kts
02-Jul-18 19:36 33.767585 -117.810543 208 1932ft 171kts
02-Jul-18 19:37 33.727724 -117.835851 208 1078ft 151kts
02-Jul-18 19:38 33.691547 -117.858794 208 294ft 146kts
02-Jul-18 19:39 33.669377 -117.871922 141 64ft 5kts
02-Jul-18 19:40 33.669966 -117.870025 41 64ft 11kts
02-Jul-18 19:41 33.672420 -117.867944 26 64ft 11kts
02-Jul-18 19:42 33.674573 -117.866191 27 64ft 6kts
02-Jul-18 19:43 33.674995 -117.865098 118 64ft 0kts
02-Jul-18 19:44 33.674995 -117.865098 118 64ft 0kts
02-Jul-18 19:45 33.674995 -117.865098 118 64ft 0kts
02-Jul-18 19:46 33.674995 -117.865098 118 64ft 0kts

Navigation Log

Ident Type
Flight plan parsing failed, navigation log unavailable